sensor_id;sensor_type;location;lat;lon;timestamp;temperature;humidity
54082;DHT22;39986;50.770;0.266;2023-02-04T00:00:45;10.60;99.90
54082;DHT22;39986;50.770;0.266;2023-02-04T00:03:15;10.50;99.90
54082;DHT22;39986;50.770;0.266;2023-02-04T00:05:42;10.50;99.90
54082;DHT22;39986;50.770;0.266;2023-02-04T00:08:07;10.50;99.90
54082;DHT22;39986;50.770;0.266;2023-02-04T00:10:33;10.50;99.90
54082;DHT22;39986;50.770;0.266;2023-02-04T00:12:59;10.60;99.90
54082;DHT22;39986;50.770;0.266;2023-02-04T00:15:24;10.60;99.90
54082;DHT22;39986;50.770;0.266;2023-02-04T00:17:50;10.60;99.90
54082;DHT22;39986;50.770;0.266;2023-02-04T00:20:15;10.60;99.90
54082;DHT22;39986;50.770;0.266;2023-02-04T00:22:41;10.70;99.90
54082;DHT22;39986;50.770;0.266;2023-02-04T00:25:07;10.70;99.90
54082;DHT22;39986;50.770;0.266;2023-02-04T00:27:32;10.70;99.90
54082;DHT22;39986;50.770;0.266;2023-02-04T00:29:58;10.60;99.90
54082;DHT22;39986;50.770;0.266;2023-02-04T00:32:23;10.60;99.90
54082;DHT22;39986;50.770;0.266;2023-02-04T00:34:49;10.60;99.90
54082;DHT22;39986;50.770;0.266;2023-02-04T00:37:15;10.70;99.90
54082;DHT22;39986;50.770;0.266;2023-02-04T00:39:40;10.70;99.90
54082;DHT22;39986;50.770;0.266;2023-02-04T00:42:06;10.60;99.90
54082;DHT22;39986;50.770;0.266;2023-02-04T00:44:35;10.60;99.90
54082;DHT22;39986;50.770;0.266;2023-02-04T00:47:01;10.50;99.90
54082;DHT22;39986;50.770;0.266;2023-02-04T00:49:27;10.60;99.90
54082;DHT22;39986;50.770;0.266;2023-02-04T00:51:52;10.50;99.90
54082;DHT22;39986;50.770;0.266;2023-02-04T00:54:18;10.40;99.90
54082;DHT22;39986;50.770;0.266;2023-02-04T00:56:44;10.50;99.90
54082;DHT22;39986;50.770;0.266;2023-02-04T00:59:09;10.50;99.90
54082;DHT22;39986;50.770;0.266;2023-02-04T01:01:35;10.50;99.90
54082;DHT22;39986;50.770;0.266;2023-02-04T01:04:01;10.50;99.90
54082;DHT22;39986;50.770;0.266;2023-02-04T01:06:27;10.50;99.90
54082;DHT22;39986;50.770;0.266;2023-02-04T01:08:52;10.50;99.90
54082;DHT22;39986;50.770;0.266;2023-02-04T01:11:18;10.50;99.90
54082;DHT22;39986;50.770;0.266;2023-02-04T01:13:44;10.40;99.90
54082;DHT22;39986;50.770;0.266;2023-02-04T01:16:12;10.40;99.90
54082;DHT22;39986;50.770;0.266;2023-02-04T01:18:37;10.30;99.90
54082;DHT22;39986;50.770;0.266;2023-02-04T01:21:03;10.40;99.90
54082;DHT22;39986;50.770;0.266;2023-02-04T01:23:29;10.40;99.90
54082;DHT22;39986;50.770;0.266;2023-02-04T01:25:54;10.40;99.90
54082;DHT22;39986;50.770;0.266;2023-02-04T01:28:20;10.50;99.90
54082;DHT22;39986;50.770;0.266;2023-02-04T01:30:45;10.50;99.90
54082;DHT22;39986;50.770;0.266;2023-02-04T01:33:11;10.50;99.90
54082;DHT22;39986;50.770;0.266;2023-02-04T01:35:36;10.60;99.90
54082;DHT22;39986;50.770;0.266;2023-02-04T01:38:02;10.40;99.90
54082;DHT22;39986;50.770;0.266;2023-02-04T01:40:27;10.40;99.90
54082;DHT22;39986;50.770;0.266;2023-02-04T01:42:53;10.40;99.90
54082;DHT22;39986;50.770;0.266;2023-02-04T01:45:19;10.50;99.90
54082;DHT22;39986;50.770;0.266;2023-02-04T01:47:47;10.50;99.90
54082;DHT22;39986;50.770;0.266;2023-02-04T01:50:13;10.60;99.90
54082;DHT22;39986;50.770;0.266;2023-02-04T01:53:05;10.50;99.90
54082;DHT22;39986;50.770;0.266;2023-02-04T01:55:31;10.50;99.90
54082;DHT22;39986;50.770;0.266;2023-02-04T01:57:57;10.50;99.90
54082;DHT22;39986;50.770;0.266;2023-02-04T02:00:27;10.60;99.90
54082;DHT22;39986;50.770;0.266;2023-02-04T02:02:54;10.50;99.90
54082;DHT22;39986;50.770;0.266;2023-02-04T02:05:21;10.50;99.90
54082;DHT22;39986;50.770;0.266;2023-02-04T02:07:48;10.60;99.90
54082;DHT22;39986;50.770;0.266;2023-02-04T02:10:15;10.50;99.90
54082;DHT22;39986;50.770;0.266;2023-02-04T02:12:42;10.60;99.90
54082;DHT22;39986;50.770;0.266;2023-02-04T02:15:08;10.60;99.90
54082;DHT22;39986;50.770;0.266;2023-02-04T02:17:34;10.60;99.90
54082;DHT22;39986;50.770;0.266;2023-02-04T02:20:02;10.50;99.90
54082;DHT22;39986;50.770;0.266;2023-02-04T02:22:29;10.60;99.90
54082;DHT22;39986;50.770;0.266;2023-02-04T02:24:56;10.60;99.90
54082;DHT22;39986;50.770;0.266;2023-02-04T02:27:22;10.60;99.90
54082;DHT22;39986;50.770;0.266;2023-02-04T02:29:47;10.50;99.90
54082;DHT22;39986;50.770;0.266;2023-02-04T02:32:13;10.50;99.90
54082;DHT22;39986;50.770;0.266;2023-02-04T02:34:39;10.50;99.90
54082;DHT22;39986;50.770;0.266;2023-02-04T02:37:05;10.60;99.90
54082;DHT22;39986;50.770;0.266;2023-02-04T02:39:31;10.60;99.90
54082;DHT22;39986;50.770;0.266;2023-02-04T02:41:56;10.60;99.90
54082;DHT22;39986;50.770;0.266;2023-02-04T02:44:22;10.60;99.90
54082;DHT22;39986;50.770;0.266;2023-02-04T02:46:49;10.50;99.90
54082;DHT22;39986;50.770;0.266;2023-02-04T02:49:15;10.40;99.90
54082;DHT22;39986;50.770;0.266;2023-02-04T02:51:43;10.50;99.90
54082;DHT22;39986;50.770;0.266;2023-02-04T02:54:12;10.50;99.90
54082;DHT22;39986;50.770;0.266;2023-02-04T02:56:42;10.50;99.90
54082;DHT22;39986;50.770;0.266;2023-02-04T02:59:14;10.50;99.90
54082;DHT22;39986;50.770;0.266;2023-02-04T03:01:39;10.40;99.90
54082;DHT22;39986;50.770;0.266;2023-02-04T03:04:06;10.40;99.90
54082;DHT22;39986;50.770;0.266;2023-02-04T03:06:31;10.40;99.90
54082;DHT22;39986;50.770;0.266;2023-02-04T03:08:57;10.40;99.90
54082;DHT22;39986;50.770;0.266;2023-02-04T03:11:22;10.30;99.90
54082;DHT22;39986;50.770;0.266;2023-02-04T03:13:50;10.30;99.90
54082;DHT22;39986;50.770;0.266;2023-02-04T03:16:16;10.30;99.90
54082;DHT22;39986;50.770;0.266;2023-02-04T03:18:41;10.30;99.90
54082;DHT22;39986;50.770;0.266;2023-02-04T03:21:07;10.30;99.90
54082;DHT22;39986;50.770;0.266;2023-02-04T03:23:33;10.30;99.90
54082;DHT22;39986;50.770;0.266;2023-02-04T03:25:59;10.40;99.90
54082;DHT22;39986;50.770;0.266;2023-02-04T03:28:25;10.30;99.90
54082;DHT22;39986;50.770;0.266;2023-02-04T03:30:51;10.20;99.90
54082;DHT22;39986;50.770;0.266;2023-02-04T03:33:26;10.30;99.90
54082;DHT22;39986;50.770;0.266;2023-02-04T03:35:58;10.20;99.90
54082;DHT22;39986;50.770;0.266;2023-02-04T03:38:24;10.30;99.90
54082;DHT22;39986;50.770;0.266;2023-02-04T03:40:50;10.30;99.90
54082;DHT22;39986;50.770;0.266;2023-02-04T03:43:15;10.30;99.90
54082;DHT22;39986;50.770;0.266;2023-02-04T03:45:41;10.20;99.90
54082;DHT22;39986;50.770;0.266;2023-02-04T03:48:06;10.20;99.90
54082;DHT22;39986;50.770;0.266;2023-02-04T03:50:32;10.20;99.90
54082;DHT22;39986;50.770;0.266;2023-02-04T03:52:59;10.30;99.90
54082;DHT22;39986;50.770;0.266;2023-02-04T03:55:25;10.20;99.90
54082;DHT22;39986;50.770;0.266;2023-02-04T03:57:51;10.20;99.90
54082;DHT22;39986;50.770;0.266;2023-02-04T04:00:16;10.20;99.90
54082;DHT22;39986;50.770;0.266;2023-02-04T04:02:42;10.20;99.90
54082;DHT22;39986;50.770;0.266;2023-02-04T04:05:08;10.20;99.90
54082;DHT22;39986;50.770;0.266;2023-02-04T04:07:34;10.30;99.90
54082;DHT22;39986;50.770;0.266;2023-02-04T04:09:59;10.40;99.90
54082;DHT22;39986;50.770;0.266;2023-02-04T04:12:25;10.30;99.90
54082;DHT22;39986;50.770;0.266;2023-02-04T04:14:50;10.20;99.90
54082;DHT22;39986;50.770;0.266;2023-02-04T04:17:16;10.30;99.90
54082;DHT22;39986;50.770;0.266;2023-02-04T04:19:41;10.30;99.90
54082;DHT22;39986;50.770;0.266;2023-02-04T04:22:09;10.30;99.90
54082;DHT22;39986;50.770;0.266;2023-02-04T04:24:34;10.30;99.90
54082;DHT22;39986;50.770;0.266;2023-02-04T04:27:00;10.30;99.90
54082;DHT22;39986;50.770;0.266;2023-02-04T04:29:26;10.30;99.90
54082;DHT22;39986;50.770;0.266;2023-02-04T04:31:52;10.30;99.90
54082;DHT22;39986;50.770;0.266;2023-02-04T04:34:17;10.30;99.90
54082;DHT22;39986;50.770;0.266;2023-02-04T04:36:43;10.30;99.90
54082;DHT22;39986;50.770;0.266;2023-02-04T04:41:59;10.20;99.90
54082;DHT22;39986;50.770;0.266;2023-02-04T04:44:25;10.20;99.90
54082;DHT22;39986;50.770;0.266;2023-02-04T04:46:50;10.20;99.90
54082;DHT22;39986;50.770;0.266;2023-02-04T04:49:16;10.20;99.90
54082;DHT22;39986;50.770;0.266;2023-02-04T04:51:44;10.20;99.90
54082;DHT22;39986;50.770;0.266;2023-02-04T04:54:09;10.20;99.90
54082;DHT22;39986;50.770;0.266;2023-02-04T04:56:35;10.20;99.90
54082;DHT22;39986;50.770;0.266;2023-02-04T04:59:02;10.20;99.90
54082;DHT22;39986;50.770;0.266;2023-02-04T05:01:28;10.10;99.90
54082;DHT22;39986;50.770;0.266;2023-02-04T05:03:53;10.20;99.90
54082;DHT22;39986;50.770;0.266;2023-02-04T05:06:19;10.30;99.90
54082;DHT22;39986;50.770;0.266;2023-02-04T05:08:52;10.20;99.90
54082;DHT22;39986;50.770;0.266;2023-02-04T05:11:18;10.20;99.90
54082;DHT22;39986;50.770;0.266;2023-02-04T05:13:44;10.20;99.90
54082;DHT22;39986;50.770;0.266;2023-02-04T05:16:09;10.20;99.90
54082;DHT22;39986;50.770;0.266;2023-02-04T05:18:38;10.20;99.90
54082;DHT22;39986;50.770;0.266;2023-02-04T05:21:04;10.20;99.90
54082;DHT22;39986;50.770;0.266;2023-02-04T05:23:29;10.20;99.90
54082;DHT22;39986;50.770;0.266;2023-02-04T05:25:55;10.10;99.90
54082;DHT22;39986;50.770;0.266;2023-02-04T05:28:21;10.10;99.90
54082;DHT22;39986;50.770;0.266;2023-02-04T05:30:46;10.10;99.90
54082;DHT22;39986;50.770;0.266;2023-02-04T05:33:12;10.10;99.90
54082;DHT22;39986;50.770;0.266;2023-02-04T05:35:37;10.10;99.90
54082;DHT22;39986;50.770;0.266;2023-02-04T05:38:03;10.00;99.90
54082;DHT22;39986;50.770;0.266;2023-02-04T05:40:28;10.10;99.90
54082;DHT22;39986;50.770;0.266;2023-02-04T05:42:54;10.10;99.90
54082;DHT22;39986;50.770;0.266;2023-02-04T05:45:20;10.00;99.90
54082;DHT22;39986;50.770;0.266;2023-02-04T05:47:45;10.00;99.90
54082;DHT22;39986;50.770;0.266;2023-02-04T05:50:11;10.10;99.90
54082;DHT22;39986;50.770;0.266;2023-02-04T05:52:41;10.10;99.90
54082;DHT22;39986;50.770;0.266;2023-02-04T05:55:07;10.10;99.90
54082;DHT22;39986;50.770;0.266;2023-02-04T05:57:32;10.10;99.90
54082;DHT22;39986;50.770;0.266;2023-02-04T05:59:58;10.10;99.90
54082;DHT22;39986;50.770;0.266;2023-02-04T06:02:23;10.00;99.90
54082;DHT22;39986;50.770;0.266;2023-02-04T06:04:49;10.10;99.90
54082;DHT22;39986;50.770;0.266;2023-02-04T06:07:15;10.10;99.90
54082;DHT22;39986;50.770;0.266;2023-02-04T06:09:40;10.10;99.90
54082;DHT22;39986;50.770;0.266;2023-02-04T06:12:06;10.10;99.90
54082;DHT22;39986;50.770;0.266;2023-02-04T06:14:31;10.00;99.90
54082;DHT22;39986;50.770;0.266;2023-02-04T06:16:57;10.10;99.90
54082;DHT22;39986;50.770;0.266;2023-02-04T06:19:24;10.00;99.90
54082;DHT22;39986;50.770;0.266;2023-02-04T06:21:49;10.00;99.90
54082;DHT22;39986;50.770;0.266;2023-02-04T06:24:15;10.00;99.90
54082;DHT22;39986;50.770;0.266;2023-02-04T06:26:40;10.00;99.90
54082;DHT22;39986;50.770;0.266;2023-02-04T06:29:06;10.20;99.90
54082;DHT22;39986;50.770;0.266;2023-02-04T06:31:31;10.00;99.90
54082;DHT22;39986;50.770;0.266;2023-02-04T06:33:57;10.00;99.90
54082;DHT22;39986;50.770;0.266;2023-02-04T06:36:22;9.90;99.90
54082;DHT22;39986;50.770;0.266;2023-02-04T06:38:49;9.90;99.90
54082;DHT22;39986;50.770;0.266;2023-02-04T06:41:15;9.90;99.90
54082;DHT22;39986;50.770;0.266;2023-02-04T06:43:40;9.80;99.90
54082;DHT22;39986;50.770;0.266;2023-02-04T06:46:06;9.80;99.90
54082;DHT22;39986;50.770;0.266;2023-02-04T06:48:32;10.00;99.90
54082;DHT22;39986;50.770;0.266;2023-02-04T06:50:57;9.90;99.90
54082;DHT22;39986;50.770;0.266;2023-02-04T06:53:23;9.90;99.90
54082;DHT22;39986;50.770;0.266;2023-02-04T06:55:48;9.90;99.90
54082;DHT22;39986;50.770;0.266;2023-02-04T06:58:14;9.90;99.90
54082;DHT22;39986;50.770;0.266;2023-02-04T07:00:39;9.90;99.90
54082;DHT22;39986;50.770;0.266;2023-02-04T07:03:05;9.90;99.90
54082;DHT22;39986;50.770;0.266;2023-02-04T07:05:32;9.80;99.90
54082;DHT22;39986;50.770;0.266;2023-02-04T07:07:57;9.90;99.90
54082;DHT22;39986;50.770;0.266;2023-02-04T07:10:23;9.90;99.90
54082;DHT22;39986;50.770;0.266;2023-02-04T07:12:48;9.90;99.90
54082;DHT22;39986;50.770;0.266;2023-02-04T07:15:14;9.90;99.90
54082;DHT22;39986;50.770;0.266;2023-02-04T07:17:40;9.80;99.90
54082;DHT22;39986;50.770;0.266;2023-02-04T07:20:05;9.80;99.90
54082;DHT22;39986;50.770;0.266;2023-02-04T07:22:31;9.90;99.90
54082;DHT22;39986;50.770;0.266;2023-02-04T07:24:56;9.80;99.90
54082;DHT22;39986;50.770;0.266;2023-02-04T07:27:22;9.90;99.90
54082;DHT22;39986;50.770;0.266;2023-02-04T07:29:47;9.90;99.90
54082;DHT22;39986;50.770;0.266;2023-02-04T07:32:13;9.90;99.90
54082;DHT22;39986;50.770;0.266;2023-02-04T07:34:38;9.90;99.90
54082;DHT22;39986;50.770;0.266;2023-02-04T07:37:04;9.90;99.90
54082;DHT22;39986;50.770;0.266;2023-02-04T07:39:30;9.80;99.90
54082;DHT22;39986;50.770;0.266;2023-02-04T07:41:55;9.90;99.90
54082;DHT22;39986;50.770;0.266;2023-02-04T07:44:21;9.80;99.90
54082;DHT22;39986;50.770;0.266;2023-02-04T07:46:46;9.80;99.90
54082;DHT22;39986;50.770;0.266;2023-02-04T07:49:12;9.70;99.90
54082;DHT22;39986;50.770;0.266;2023-02-04T07:51:37;9.80;99.90
54082;DHT22;39986;50.770;0.266;2023-02-04T07:54:04;9.70;99.90
54082;DHT22;39986;50.770;0.266;2023-02-04T07:56:29;9.90;99.90
54082;DHT22;39986;50.770;0.266;2023-02-04T07:58:55;9.80;99.90
54082;DHT22;39986;50.770;0.266;2023-02-04T08:01:20;9.90;99.90
54082;DHT22;39986;50.770;0.266;2023-02-04T08:03:46;9.90;99.90
54082;DHT22;39986;50.770;0.266;2023-02-04T08:06:11;9.90;99.90
54082;DHT22;39986;50.770;0.266;2023-02-04T08:08:37;9.90;99.90
54082;DHT22;39986;50.770;0.266;2023-02-04T08:11:03;9.90;99.90
54082;DHT22;39986;50.770;0.266;2023-02-04T08:13:29;10.00;99.90
54082;DHT22;39986;50.770;0.266;2023-02-04T08:15:54;10.00;99.90
54082;DHT22;39986;50.770;0.266;2023-02-04T08:18:20;10.00;99.90
54082;DHT22;39986;50.770;0.266;2023-02-04T08:20:45;10.00;99.90
54082;DHT22;39986;50.770;0.266;2023-02-04T08:23:11;10.00;99.90
54082;DHT22;39986;50.770;0.266;2023-02-04T08:25:36;10.00;99.90
54082;DHT22;39986;50.770;0.266;2023-02-04T08:28:02;10.10;99.90
54082;DHT22;39986;50.770;0.266;2023-02-04T08:30:27;10.10;99.90
54082;DHT22;39986;50.770;0.266;2023-02-04T08:32:53;10.20;99.90
54082;DHT22;39986;50.770;0.266;2023-02-04T08:35:18;10.10;99.90
54082;DHT22;39986;50.770;0.266;2023-02-04T08:37:44;10.20;99.90
54082;DHT22;39986;50.770;0.266;2023-02-04T08:40:11;10.10;99.90
54082;DHT22;39986;50.770;0.266;2023-02-04T08:42:36;10.20;99.90
54082;DHT22;39986;50.770;0.266;2023-02-04T08:45:02;10.40;99.90
54082;DHT22;39986;50.770;0.266;2023-02-04T08:47:28;10.30;99.90
54082;DHT22;39986;50.770;0.266;2023-02-04T08:49:53;10.20;99.90
54082;DHT22;39986;50.770;0.266;2023-02-04T08:52:19;10.30;99.90
54082;DHT22;39986;50.770;0.266;2023-02-04T08:54:44;10.40;99.90
54082;DHT22;39986;50.770;0.266;2023-02-04T08:57:10;10.40;99.90
54082;DHT22;39986;50.770;0.266;2023-02-04T08:59:35;10.40;99.90
54082;DHT22;39986;50.770;0.266;2023-02-04T09:02:01;10.40;99.90
54082;DHT22;39986;50.770;0.266;2023-02-04T09:04:27;10.50;99.90
54082;DHT22;39986;50.770;0.266;2023-02-04T09:06:53;10.50;99.90
54082;DHT22;39986;50.770;0.266;2023-02-04T09:09:18;10.50;99.90
54082;DHT22;39986;50.770;0.266;2023-02-04T09:12:09;10.50;99.90
54082;DHT22;39986;50.770;0.266;2023-02-04T09:14:34;10.50;99.90
54082;DHT22;39986;50.770;0.266;2023-02-04T09:17:00;10.50;99.90
54082;DHT22;39986;50.770;0.266;2023-02-04T09:19:26;10.60;99.90
54082;DHT22;39986;50.770;0.266;2023-02-04T09:21:52;10.60;99.90
54082;DHT22;39986;50.770;0.266;2023-02-04T09:24:18;10.60;99.90
54082;DHT22;39986;50.770;0.266;2023-02-04T09:26:43;10.60;99.90
54082;DHT22;39986;50.770;0.266;2023-02-04T09:29:09;10.70;99.90
54082;DHT22;39986;50.770;0.266;2023-02-04T09:31:34;10.70;99.90
54082;DHT22;39986;50.770;0.266;2023-02-04T09:34:00;10.70;99.90
54082;DHT22;39986;50.770;0.266;2023-02-04T09:36:25;10.80;99.90
54082;DHT22;39986;50.770;0.266;2023-02-04T09:38:53;10.80;99.90
54082;DHT22;39986;50.770;0.266;2023-02-04T09:41:19;10.80;99.90
54082;DHT22;39986;50.770;0.266;2023-02-04T09:43:45;10.80;99.90
54082;DHT22;39986;50.770;0.266;2023-02-04T09:46:17;10.90;99.90
54082;DHT22;39986;50.770;0.266;2023-02-04T09:48:44;10.90;99.90
54082;DHT22;39986;50.770;0.266;2023-02-04T09:51:09;11.00;99.90
54082;DHT22;39986;50.770;0.266;2023-02-04T09:53:37;11.00;99.90
54082;DHT22;39986;50.770;0.266;2023-02-04T09:56:02;11.10;99.90
54082;DHT22;39986;50.770;0.266;2023-02-04T09:58:28;11.20;99.90
54082;DHT22;39986;50.770;0.266;2023-02-04T10:00:57;11.10;99.90
54082;DHT22;39986;50.770;0.266;2023-02-04T10:03:23;11.10;99.90
54082;DHT22;39986;50.770;0.266;2023-02-04T10:05:48;11.10;99.90
54082;DHT22;39986;50.770;0.266;2023-02-04T10:08:15;11.10;99.90
54082;DHT22;39986;50.770;0.266;2023-02-04T10:10:41;11.10;99.90
54082;DHT22;39986;50.770;0.266;2023-02-04T10:13:07;11.10;99.90
54082;DHT22;39986;50.770;0.266;2023-02-04T10:15:38;11.10;99.90
54082;DHT22;39986;50.770;0.266;2023-02-04T10:18:04;11.10;99.90
54082;DHT22;39986;50.770;0.266;2023-02-04T10:20:32;11.20;99.90
54082;DHT22;39986;50.770;0.266;2023-02-04T10:22:57;11.20;99.90
54082;DHT22;39986;50.770;0.266;2023-02-04T10:25:23;11.20;99.90
54082;DHT22;39986;50.770;0.266;2023-02-04T10:27:53;11.20;99.90
54082;DHT22;39986;50.770;0.266;2023-02-04T10:30:29;11.20;99.90
54082;DHT22;39986;50.770;0.266;2023-02-04T10:32:59;11.30;99.90
54082;DHT22;39986;50.770;0.266;2023-02-04T10:35:25;11.30;99.90
54082;DHT22;39986;50.770;0.266;2023-02-04T10:38:04;11.30;99.90
54082;DHT22;39986;50.770;0.266;2023-02-04T10:40:30;11.40;99.90
54082;DHT22;39986;50.770;0.266;2023-02-04T10:42:56;11.40;99.90
54082;DHT22;39986;50.770;0.266;2023-02-04T10:45:23;11.30;99.90
54082;DHT22;39986;50.770;0.266;2023-02-04T10:47:49;11.20;99.90
54082;DHT22;39986;50.770;0.266;2023-02-04T10:50:19;11.30;99.90
54082;DHT22;39986;50.770;0.266;2023-02-04T10:52:46;11.30;99.90
54082;DHT22;39986;50.770;0.266;2023-02-04T10:55:15;11.30;99.90
54082;DHT22;39986;50.770;0.266;2023-02-04T10:57:45;11.40;99.90
54082;DHT22;39986;50.770;0.266;2023-02-04T11:02:48;11.40;99.90
54082;DHT22;39986;50.770;0.266;2023-02-04T11:05:16;11.40;99.90
54082;DHT22;39986;50.770;0.266;2023-02-04T11:07:43;11.40;99.90
54082;DHT22;39986;50.770;0.266;2023-02-04T11:10:11;11.40;99.90
54082;DHT22;39986;50.770;0.266;2023-02-04T11:15:03;11.50;99.90
54082;DHT22;39986;50.770;0.266;2023-02-04T11:17:30;11.60;99.90
54082;DHT22;39986;50.770;0.266;2023-02-04T11:19:56;11.60;99.90
54082;DHT22;39986;50.770;0.266;2023-02-04T11:22:42;11.70;99.90
54082;DHT22;39986;50.770;0.266;2023-02-04T11:27:52;11.70;99.90
54082;DHT22;39986;50.770;0.266;2023-02-04T11:30:21;11.80;99.90
54082;DHT22;39986;50.770;0.266;2023-02-04T11:33:02;11.60;99.90
54082;DHT22;39986;50.770;0.266;2023-02-04T11:35:28;11.60;99.90
54082;DHT22;39986;50.770;0.266;2023-02-04T11:37:55;11.70;99.90
54082;DHT22;39986;50.770;0.266;2023-02-04T11:42:49;11.60;99.90
54082;DHT22;39986;50.770;0.266;2023-02-04T11:45:21;11.60;99.90
54082;DHT22;39986;50.770;0.266;2023-02-04T11:47:49;11.60;99.90
54082;DHT22;39986;50.770;0.266;2023-02-04T11:50:20;11.60;99.90
54082;DHT22;39986;50.770;0.266;2023-02-04T11:52:48;11.50;99.90
54082;DHT22;39986;50.770;0.266;2023-02-04T11:55:13;11.50;99.90
54082;DHT22;39986;50.770;0.266;2023-02-04T11:57:40;11.50;99.90
54082;DHT22;39986;50.770;0.266;2023-02-04T12:00:11;11.60;99.90
54082;DHT22;39986;50.770;0.266;2023-02-04T12:02:43;11.60;99.90
54082;DHT22;39986;50.770;0.266;2023-02-04T12:05:13;11.60;99.90
54082;DHT22;39986;50.770;0.266;2023-02-04T12:07:39;11.60;99.90
54082;DHT22;39986;50.770;0.266;2023-02-04T12:10:12;11.60;99.90
54082;DHT22;39986;50.770;0.266;2023-02-04T12:12:42;11.60;99.90
54082;DHT22;39986;50.770;0.266;2023-02-04T12:15:16;11.60;99.90
54082;DHT22;39986;50.770;0.266;2023-02-04T12:17:45;11.60;99.90
54082;DHT22;39986;50.770;0.266;2023-02-04T12:20:11;11.50;99.90
54082;DHT22;39986;50.770;0.266;2023-02-04T12:22:37;11.60;99.90
54082;DHT22;39986;50.770;0.266;2023-02-04T12:25:02;11.50;99.90
54082;DHT22;39986;50.770;0.266;2023-02-04T12:27:28;11.50;99.90
54082;DHT22;39986;50.770;0.266;2023-02-04T12:29:53;11.60;99.90
54082;DHT22;39986;50.770;0.266;2023-02-04T12:32:19;11.60;99.90
54082;DHT22;39986;50.770;0.266;2023-02-04T12:34:45;11.60;99.90
54082;DHT22;39986;50.770;0.266;2023-02-04T12:37:11;11.70;99.90
54082;DHT22;39986;50.770;0.266;2023-02-04T12:39:36;11.70;99.90
54082;DHT22;39986;50.770;0.266;2023-02-04T12:42:02;11.80;99.90
54082;DHT22;39986;50.770;0.266;2023-02-04T12:44:28;11.80;99.90
54082;DHT22;39986;50.770;0.266;2023-02-04T12:46:54;11.80;99.90
54082;DHT22;39986;50.770;0.266;2023-02-04T12:49:20;11.70;99.90
54082;DHT22;39986;50.770;0.266;2023-02-04T12:51:49;11.70;99.90
54082;DHT22;39986;50.770;0.266;2023-02-04T12:54:15;11.70;99.90
54082;DHT22;39986;50.770;0.266;2023-02-04T12:56:41;11.70;99.90
54082;DHT22;39986;50.770;0.266;2023-02-04T12:59:06;11.70;99.90
54082;DHT22;39986;50.770;0.266;2023-02-04T13:01:32;11.70;99.90
54082;DHT22;39986;50.770;0.266;2023-02-04T13:03:58;11.70;99.90
54082;DHT22;39986;50.770;0.266;2023-02-04T13:06:23;11.70;99.90
54082;DHT22;39986;50.770;0.266;2023-02-04T13:08:49;11.70;99.90
54082;DHT22;39986;50.770;0.266;2023-02-04T13:11:14;11.70;99.90
54082;DHT22;39986;50.770;0.266;2023-02-04T13:13:40;11.60;99.90
54082;DHT22;39986;50.770;0.266;2023-02-04T13:16:05;11.60;99.90
54082;DHT22;39986;50.770;0.266;2023-02-04T13:18:31;11.70;99.90
54082;DHT22;39986;50.770;0.266;2023-02-04T13:20:58;11.60;99.90
54082;DHT22;39986;50.770;0.266;2023-02-04T13:23:23;11.70;99.90
54082;DHT22;39986;50.770;0.266;2023-02-04T13:25:49;11.80;99.90
54082;DHT22;39986;50.770;0.266;2023-02-04T13:28:39;11.80;99.90
54082;DHT22;39986;50.770;0.266;2023-02-04T13:31:05;11.90;99.90
54082;DHT22;39986;50.770;0.266;2023-02-04T13:33:31;11.80;99.90
54082;DHT22;39986;50.770;0.266;2023-02-04T13:35:57;11.70;99.90
54082;DHT22;39986;50.770;0.266;2023-02-04T13:38:23;11.70;99.90
54082;DHT22;39986;50.770;0.266;2023-02-04T13:40:49;11.50;99.90
54082;DHT22;39986;50.770;0.266;2023-02-04T13:43:15;11.40;99.90
54082;DHT22;39986;50.770;0.266;2023-02-04T13:45:40;11.40;99.90
54082;DHT22;39986;50.770;0.266;2023-02-04T13:48:11;11.40;99.90
54082;DHT22;39986;50.770;0.266;2023-02-04T13:50:37;11.30;99.90
54082;DHT22;39986;50.770;0.266;2023-02-04T13:53:03;11.10;99.90
54082;DHT22;39986;50.770;0.266;2023-02-04T13:55:29;11.10;99.90
54082;DHT22;39986;50.770;0.266;2023-02-04T13:57:54;11.10;99.90
54082;DHT22;39986;50.770;0.266;2023-02-04T14:00:20;11.00;99.90
54082;DHT22;39986;50.770;0.266;2023-02-04T14:02:48;10.90;99.90
54082;DHT22;39986;50.770;0.266;2023-02-04T14:05:14;10.90;99.90
54082;DHT22;39986;50.770;0.266;2023-02-04T14:07:40;10.90;99.90
54082;DHT22;39986;50.770;0.266;2023-02-04T14:10:05;10.90;99.90
54082;DHT22;39986;50.770;0.266;2023-02-04T14:12:31;10.90;99.90
54082;DHT22;39986;50.770;0.266;2023-02-04T14:14:57;11.00;99.90
54082;DHT22;39986;50.770;0.266;2023-02-04T14:17:22;10.90;99.90
54082;DHT22;39986;50.770;0.266;2023-02-04T14:19:48;10.90;99.90
54082;DHT22;39986;50.770;0.266;2023-02-04T14:22:13;11.10;99.90
54082;DHT22;39986;50.770;0.266;2023-02-04T14:24:39;11.00;99.90
54082;DHT22;39986;50.770;0.266;2023-02-04T14:27:07;11.00;99.90
54082;DHT22;39986;50.770;0.266;2023-02-04T14:29:33;11.10;99.90
54082;DHT22;39986;50.770;0.266;2023-02-04T14:31:59;11.00;99.90
54082;DHT22;39986;50.770;0.266;2023-02-04T14:34:24;11.00;99.90
54082;DHT22;39986;50.770;0.266;2023-02-04T14:36:50;11.00;99.90
54082;DHT22;39986;50.770;0.266;2023-02-04T14:39:15;11.00;99.90
54082;DHT22;39986;50.770;0.266;2023-02-04T14:41:41;11.00;99.90
54082;DHT22;39986;50.770;0.266;2023-02-04T14:44:06;11.00;99.90
54082;DHT22;39986;50.770;0.266;2023-02-04T14:46:32;11.00;99.90
54082;DHT22;39986;50.770;0.266;2023-02-04T14:48:57;10.90;99.90
54082;DHT22;39986;50.770;0.266;2023-02-04T14:51:23;11.00;99.90
54082;DHT22;39986;50.770;0.266;2023-02-04T14:53:48;10.90;99.90
54082;DHT22;39986;50.770;0.266;2023-02-04T14:56:14;10.80;99.90
54082;DHT22;39986;50.770;0.266;2023-02-04T14:58:40;10.80;99.90
54082;DHT22;39986;50.770;0.266;2023-02-04T15:01:05;10.70;99.90
54082;DHT22;39986;50.770;0.266;2023-02-04T15:03:31;10.70;99.90
54082;DHT22;39986;50.770;0.266;2023-02-04T15:05:59;10.70;99.90
54082;DHT22;39986;50.770;0.266;2023-02-04T15:08:24;10.70;99.90
54082;DHT22;39986;50.770;0.266;2023-02-04T15:10:50;10.70;99.90
54082;DHT22;39986;50.770;0.266;2023-02-04T15:13:15;10.60;99.90
54082;DHT22;39986;50.770;0.266;2023-02-04T15:15:41;10.60;99.90
54082;DHT22;39986;50.770;0.266;2023-02-04T15:18:06;10.50;99.90
54082;DHT22;39986;50.770;0.266;2023-02-04T15:20:32;10.60;99.90
54082;DHT22;39986;50.770;0.266;2023-02-04T15:22:57;10.60;99.90
54082;DHT22;39986;50.770;0.266;2023-02-04T15:25:23;10.50;99.90
54082;DHT22;39986;50.770;0.266;2023-02-04T15:27:48;10.50;99.90
54082;DHT22;39986;50.770;0.266;2023-02-04T15:30:14;10.60;99.90
54082;DHT22;39986;50.770;0.266;2023-02-04T15:32:39;10.50;99.90
54082;DHT22;39986;50.770;0.266;2023-02-04T15:35:07;10.60;99.90
54082;DHT22;39986;50.770;0.266;2023-02-04T15:37:34;10.60;99.90
54082;DHT22;39986;50.770;0.266;2023-02-04T15:39:59;10.60;99.90